Time;durP1;ratioP1;P1;durP2;ratioP2;P2;SDS_P1;SDS_P2;PMS_P1;PMS_P2;Temp;Humidity;BMP_temperature;BMP_pressure;BME280_temperature;BME280_humidity;BME280_pressure;Samples;Min_cycle;Max_cycle;Signal;HPM_P1;HPM_P2
2023/03/23 00:00:17;;;;;;;;;;;;;;;;;;4939623;29;19922;-90
2023/03/23 00:02:45;;;;;;;;;;;;;;;;;;4923798;29;19946;-90
2023/03/23 00:05:13;;;;;;;;;;;;;;;;;;4923656;29;19922;-91
2023/03/23 00:07:45;;;;;;;;;;;;;;;;;;4923774;29;19933;-92
2023/03/23 00:10:12;;;;;;;;;;;;;;;;;;4923559;29;19922;-92
2023/03/23 00:12:41;;;;;;;;;;;;;;;;;;4923821;29;20277;-92
2023/03/23 00:15:12;;;;;;;;;;;;;;;;;;4923902;29;20017;-92
2023/03/23 00:17:38;;;;;;;;;;;;;;;;;;4923456;29;20382;-93
2023/03/23 00:20:09;;;;;;;;;;;;;;;;;;4923160;29;19930;-91
2023/03/23 00:22:37;;;;;;;;;;;;;;;;;;4923355;29;19933;-90
2023/03/23 00:25:03;;;;;;;;;;;;;;;;;;4923155;28;20396;-92
2023/03/23 00:27:29;;;;;;;;;;;;;;;;;;4923683;29;20005;-93
2023/03/23 00:29:56;;;;;;;;;;;;;;;;;;4923671;29;19950;-90
2023/03/23 00:32:26;;;;;;;;;;;;;;;;;;4923303;29;20013;-92
2023/03/23 00:34:52;;;;;;;;;;;;;;;;;;4922473;28;19968;-92
2023/03/23 00:37:19;;;;;;;;;;;;;;;;;;4923241;29;19926;-91
2023/03/23 00:39:45;;;;;;;;;;;;;;;;;;4924136;29;19927;-90
2023/03/23 00:42:12;;;;;;;;;;;;;;;;;;4923535;29;20259;-92
2023/03/23 00:44:39;;;;;;;;;;;;;;;;;;4938877;29;20323;-90
2023/03/23 00:47:07;;;;;;;;;;;;;;;;;;4922087;29;20435;-90
2023/03/23 00:49:34;;;;;;;;;;;;;;;;;;4922985;29;19954;-90
2023/03/23 00:52:00;;;;;;;;;;;;;;;;;;4939117;29;19923;-90
2023/03/23 00:54:26;;;;;;;;;;;;;;;;;;4923320;29;19923;-92
2023/03/23 00:56:52;;;;;;;;;;;;;;;;;;4922782;29;19926;-92
2023/03/23 00:59:18;;;;;;;;;;;;;;;;;;4923845;29;20281;-90
2023/03/23 01:01:44;;;;;;;;;;;;;;;;;;4924125;29;20491;-92
2023/03/23 01:04:14;;;;;;;;;;;;;;;;;;4923863;29;20062;-90
2023/03/23 01:06:40;;;;;;;;;;;;;;;;;;4923377;29;19926;-92
2023/03/23 01:09:06;;;;;;;;;;;;;;;;;;4922620;29;19974;-93
2023/03/23 01:11:32;;;;;;;;;;;;;;;;;;4922304;29;19965;-93
2023/03/23 01:13:58;;;;;;;;;;;;;;;;;;4922128;29;19974;-91
2023/03/23 01:16:25;;;;;;;;;;;;;;;;;;4921610;29;20342;-91
2023/03/23 01:18:51;;;;;;;;;;;;;;;;;;4922165;29;19923;-92
2023/03/23 01:21:16;;;;;;;;;;;;;;;;;;4922556;29;19931;-92
2023/03/23 01:23:42;;;;;;;;;;;;;;;;;;4922296;29;19927;-91
2023/03/23 01:26:08;;;;;;;;;;;;;;;;;;4922014;29;19923;-92
2023/03/23 01:28:34;;;;;;;;;;;;;;;;;;4922177;29;19926;-90
2023/03/23 01:31:00;;;;;;;;;;;;;;;;;;4922136;29;20382;-92
2023/03/23 01:33:26;;;;;;;;;;;;;;;;;;4922221;29;19948;-91
2023/03/23 01:35:52;;;;;;;;;;;;;;;;;;4921901;29;20018;-93
2023/03/23 01:38:18;;;;;;;;;;;;;;;;;;4922163;29;19970;-92
2023/03/23 01:40:44;;;;;;;;;;;;;;;;;;4921958;29;19926;-91
2023/03/23 01:43:10;;;;;;;;;;;;;;;;;;4921922;29;19922;-91
2023/03/23 01:45:36;;;;;;;;;;;;;;;;;;4937704;29;19981;-89
2023/03/23 01:48:03;;;;;;;;;;;;;;;;;;4922162;29;19929;-93
2023/03/23 01:50:29;;;;;;;;;;;;;;;;;;4937987;29;19922;-90
2023/03/23 01:52:55;;;;;;;;;;;;;;;;;;4922310;29;19922;-91
2023/03/23 01:55:21;;;;;;;;;;;;;;;;;;4921331;29;19926;-90
2023/03/23 01:57:47;;;;;;;;;;;;;;;;;;4922843;29;19922;-92
2023/03/23 02:00:16;;;;;;;;;;;;;;;;;;4926163;29;19923;-91
2023/03/23 02:02:43;;;;;;;;;;;;;;;;;;4926348;29;20568;-91
2023/03/23 02:05:09;;;;;;;;;;;;;;;;;;4926155;29;19923;-91
2023/03/23 02:07:36;;;;;;;;;;;;;;;;;;4925511;29;20393;-90
2023/03/23 02:10:02;;;;;;;;;;;;;;;;;;4925500;29;19923;-92
2023/03/23 02:12:28;;;;;;;;;;;;;;;;;;4925587;29;20355;-90
2023/03/23 02:14:54;;;;;;;;;;;;;;;;;;4925443;28;20033;-93
2023/03/23 02:17:20;;;;;;;;;;;;;;;;;;4926008;29;19970;-93
2023/03/23 02:19:46;;;;;;;;;;;;;;;;;;4925780;29;19922;-91
2023/03/23 02:22:12;;;;;;;;;;;;;;;;;;4925394;29;19922;-91
2023/03/23 02:24:38;;;;;;;;;;;;;;;;;;4925238;29;19922;-92
2023/03/23 02:27:04;;;;;;;;;;;;;;;;;;4925108;29;20282;-91
2023/03/23 02:29:30;;;;;;;;;;;;;;;;;;4925293;29;20437;-91
2023/03/23 02:31:57;;;;;;;;;;;;;;;;;;4924789;29;20464;-92
2023/03/23 02:34:23;;;;;;;;;;;;;;;;;;4925410;29;19922;-92
2023/03/23 02:36:48;;;;;;;;;;;;;;;;;;4924204;29;19934;-90
2023/03/23 02:39:14;;;;;;;;;;;;;;;;;;4924861;29;19926;-90
2023/03/23 02:41:42;;;;;;;;;;;;;;;;;;4925025;29;19929;-92
2023/03/23 02:44:09;;;;;;;;;;;;;;;;;;4941573;29;19970;-90
2023/03/23 02:46:35;;;;;;;;;;;;;;;;;;4921490;29;19931;-92
2023/03/23 02:49:01;;;;;;;;;;;;;;;;;;4921445;29;19930;-92
2023/03/23 02:51:27;;;;;;;;;;;;;;;;;;4921809;29;19929;-92
2023/03/23 02:53:53;;;;;;;;;;;;;;;;;;4921715;29;19927;-91
2023/03/23 02:56:19;;;;;;;;;;;;;;;;;;4921520;29;19927;-90
2023/03/23 02:58:45;;;;;;;;;;;;;;;;;;4921777;29;19927;-90
2023/03/23 03:01:13;;;;;;;;;;;;;;;;;;4921190;29;19922;-92
2023/03/23 03:03:39;;;;;;;;;;;;;;;;;;4921346;29;19923;-91
2023/03/23 03:06:05;;;;;;;;;;;;;;;;;;4921470;29;19923;-91
2023/03/23 03:08:31;;;;;;;;;;;;;;;;;;4937280;29;19985;-93
2023/03/23 03:10:57;;;;;;;;;;;;;;;;;;4921383;29;20208;-90
2023/03/23 03:13:23;;;;;;;;;;;;;;;;;;4921983;29;19934;-90
2023/03/23 03:15:49;;;;;;;;;;;;;;;;;;4936374;29;19927;-90
2023/03/23 03:18:15;;;;;;;;;;;;;;;;;;4920992;29;19927;-91
2023/03/23 03:20:41;;;;;;;;;;;;;;;;;;4921115;29;19927;-91
2023/03/23 03:23:09;;;;;;;;;;;;;;;;;;4921021;29;19923;-91
2023/03/23 03:25:35;;;;;;;;;;;;;;;;;;4921455;29;19927;-91
2023/03/23 03:28:01;;;;;;;;;;;;;;;;;;4921237;29;20375;-90
2023/03/23 03:30:27;;;;;;;;;;;;;;;;;;4921080;29;19948;-92
2023/03/23 03:32:54;;;;;;;;;;;;;;;;;;4921119;29;20264;-91
2023/03/23 03:35:20;;;;;;;;;;;;;;;;;;4920678;29;20096;-90
2023/03/23 03:37:46;;;;;;;;;;;;;;;;;;4920951;29;20070;-90
2023/03/23 03:40:12;;;;;;;;;;;;;;;;;;4921456;29;19985;-91
2023/03/23 03:42:38;;;;;;;;;;;;;;;;;;4920775;29;19930;-91
2023/03/23 03:45:04;;;;;;;;;;;;;;;;;;4920986;29;19973;-90
2023/03/23 03:47:29;;;;;;;;;;;;;;;;;;4920785;29;19927;-92
2023/03/23 03:49:55;;;;;;;;;;;;;;;;;;4920964;29;19923;-92
2023/03/23 03:52:24;;;;;;;;;;;;;;;;;;4936525;29;20006;-91
2023/03/23 03:54:51;;;;;;;;;;;;;;;;;;4920734;29;20401;-90
2023/03/23 03:57:17;;;;;;;;;;;;;;;;;;4920271;29;19922;-90
2023/03/23 03:59:43;;;;;;;;;;;;;;;;;;4920648;29;19922;-91
2023/03/23 04:02:13;;;;;;;;;;;;;;;;;;4920806;29;19990;-91
2023/03/23 04:04:40;;;;;;;;;;;;;;;;;;4920783;29;19927;-89
2023/03/23 04:07:05;;;;;;;;;;;;;;;;;;4920703;29;20013;-90
2023/03/23 04:09:31;;;;;;;;;;;;;;;;;;4920542;29;20018;-91
2023/03/23 04:11:57;;;;;;;;;;;;;;;;;;4920797;29;20017;-91
2023/03/23 04:14:23;;;;;;;;;;;;;;;;;;4920301;29;19923;-91
2023/03/23 04:16:51;;;;;;;;;;;;;;;;;;4919903;29;19926;-91
2023/03/23 04:19:18;;;;;;;;;;;;;;;;;;4935749;29;19930;-91
2023/03/23 04:21:48;;;;;;;;;;;;;;;;;;4919449;29;20006;-90
2023/03/23 04:24:14;;;;;;;;;;;;;;;;;;4920020;29;19926;-91
2023/03/23 04:26:41;;;;;;;;;;;;;;;;;;4920306;29;19973;-92
2023/03/23 04:29:08;;;;;;;;;;;;;;;;;;4920026;29;20058;-91
2023/03/23 04:31:34;;;;;;;;;;;;;;;;;;4920067;29;19923;-91
2023/03/23 04:34:01;;;;;;;;;;;;;;;;;;4919811;29;20104;-90
2023/03/23 04:36:28;;;;;;;;;;;;;;;;;;4935633;29;19949;-90
2023/03/23 04:38:54;;;;;;;;;;;;;;;;;;4919147;29;19933;-91
2023/03/23 04:41:20;;;;;;;;;;;;;;;;;;4919588;29;20372;-91
2023/03/23 04:43:52;;;;;;;;;;;;;;;;;;4919588;29;19937;-89
2023/03/23 04:46:19;;;;;;;;;;;;;;;;;;4919639;29;20334;-89
2023/03/23 04:48:44;;;;;;;;;;;;;;;;;;4919626;29;19937;-89
2023/03/23 04:51:12;;;;;;;;;;;;;;;;;;4919430;29;20298;-91
2023/03/23 04:53:37;;;;;;;;;;;;;;;;;;4935601;29;20340;-92
2023/03/23 04:56:03;;;;;;;;;;;;;;;;;;4935361;29;20070;-91
2023/03/23 04:58:33;;;;;;;;;;;;;;;;;;4919450;29;19970;-90
2023/03/23 05:00:59;;;;;;;;;;;;;;;;;;4919175;29;19934;-89
2023/03/23 05:03:25;;;;;;;;;;;;;;;;;;4918988;29;19923;-89
2023/03/23 05:05:51;;;;;;;;;;;;;;;;;;4919366;29;19930;-90
2023/03/23 05:08:17;;;;;;;;;;;;;;;;;;4918970;29;19923;-90
2023/03/23 05:10:43;;;;;;;;;;;;;;;;;;4918690;29;19923;-90
2023/03/23 05:13:09;;;;;;;;;;;;;;;;;;4934597;29;19942;-90
2023/03/23 05:15:35;;;;;;;;;;;;;;;;;;4918460;29;19994;-91
2023/03/23 05:18:01;;;;;;;;;;;;;;;;;;4918889;29;19973;-90
2023/03/23 05:20:29;;;;;;;;;;;;;;;;;;4918529;29;19974;-90
2023/03/23 05:22:56;;;;;;;;;;;;;;;;;;4918473;29;19927;-91
2023/03/23 05:25:22;;;;;;;;;;;;;;;;;;4918606;29;19923;-89
2023/03/23 05:27:52;;;;;;;;;;;;;;;;;;4918894;29;20271;-90
2023/03/23 05:30:18;;;;;;;;;;;;;;;;;;4918434;29;19926;-89
2023/03/23 05:32:44;;;;;;;;;;;;;;;;;;4917444;29;19930;-90
2023/03/23 05:35:13;;;;;;;;;;;;;;;;;;4934342;29;19926;-90
2023/03/23 05:37:39;;;;;;;;;;;;;;;;;;4934375;29;19969;-89
2023/03/23 05:40:06;;;;;;;;;;;;;;;;;;4918604;29;20345;-90
2023/03/23 05:42:32;;;;;;;;;;;;;;;;;;4918621;29;19926;-89
2023/03/23 05:44:58;;;;;;;;;;;;;;;;;;4919109;29;20262;-89
2023/03/23 05:47:25;;;;;;;;;;;;;;;;;;4918654;29;20017;-89
2023/03/23 05:49:53;;;;;;;;;;;;;;;;;;4918723;29;20013;-89
2023/03/23 05:52:19;;;;;;;;;;;;;;;;;;4918633;29;19930;-89
2023/03/23 05:54:45;;;;;;;;;;;;;;;;;;4918668;29;19927;-90
2023/03/23 05:57:11;;;;;;;;;;;;;;;;;;4918522;29;19974;-90
2023/03/23 05:59:37;;;;;;;;;;;;;;;;;;4934531;29;19927;-89
2023/03/23 06:02:03;;;;;;;;;;;;;;;;;;4918678;29;19929;-90
2023/03/23 06:04:29;;;;;;;;;;;;;;;;;;4918044;29;19922;-90
2023/03/23 06:06:55;;;;;;;;;;;;;;;;;;4918610;29;19927;-90
2023/03/23 06:09:23;;;;;;;;;;;;;;;;;;4918541;29;19922;-91
2023/03/23 06:11:49;;;;;;;;;;;;;;;;;;4918204;29;20022;-89
2023/03/23 06:14:16;;;;;;;;;;;;;;;;;;4918696;29;19986;-89
2023/03/23 06:16:42;;;;;;;;;;;;;;;;;;4918576;29;19934;-89
2023/03/23 06:19:08;;;;;;;;;;;;;;;;;;4918840;29;20282;-88
2023/03/23 06:21:34;;;;;;;;;;;;;;;;;;4918954;29;19929;-90
2023/03/23 06:24:00;;;;;;;;;;;;;;;;;;4918749;29;19966;-91
2023/03/23 06:26:26;;;;;;;;;;;;;;;;;;4918399;29;20445;-90
2023/03/23 06:28:54;;;;;;;;;;;;;;;;;;4918189;29;19926;-90
2023/03/23 06:31:22;;;;;;;;;;;;;;;;;;4934411;29;20009;-89
2023/03/23 06:33:48;;;;;;;;;;;;;;;;;;4934311;29;19929;-90
2023/03/23 06:36:14;;;;;;;;;;;;;;;;;;4934220;29;19927;-91
2023/03/23 06:38:40;;;;;;;;;;;;;;;;;;4918457;29;19987;-89
2023/03/23 06:41:06;;;;;;;;;;;;;;;;;;4918340;29;19927;-90
2023/03/23 06:43:33;;;;;;;;;;;;;;;;;;4918270;29;19946;-89
2023/03/23 06:45:59;;;;;;;;;;;;;;;;;;4921071;29;19926;-89
2023/03/23 06:48:27;;;;;;;;;;;;;;;;;;4921834;29;20266;-89
2023/03/23 06:50:53;;;;;;;;;;;;;;;;;;4922038;29;19930;-91
2023/03/23 06:53:20;;;;;;;;;;;;;;;;;;4921327;29;19923;-90
2023/03/23 06:55:46;;;;;;;;;;;;;;;;;;4921435;29;19926;-90
2023/03/23 06:58:12;;;;;;;;;;;;;;;;;;4921321;29;20039;-90
2023/03/23 07:00:38;;;;;;;;;;;;;;;;;;4921615;29;19970;-93
2023/03/23 07:03:04;;;;;;;;;;;;;;;;;;4921579;29;19970;-91
2023/03/23 07:05:30;;;;;;;;;;;;;;;;;;4921345;29;19993;-92
2023/03/23 07:07:56;;;;;;;;;;;;;;;;;;4921588;29;19929;-93
2023/03/23 07:10:22;;;;;;;;;;;;;;;;;;4921273;29;20026;-90
2023/03/23 07:12:48;;;;;;;;;;;;;;;;;;4921324;29;19923;-92
2023/03/23 07:15:15;;;;;;;;;;;;;;;;;;4920851;29;20259;-91
2023/03/23 07:17:41;;;;;;;;;;;;;;;;;;4921373;29;19929;-92
2023/03/23 07:20:07;;;;;;;;;;;;;;;;;;4937519;29;19922;-93
2023/03/23 07:22:33;;;;;;;;;;;;;;;;;;4937098;29;19978;-91
2023/03/23 07:24:59;;;;;;;;;;;;;;;;;;4920268;29;19923;-92
2023/03/23 07:27:25;;;;;;;;;;;;;;;;;;4921038;29;19923;-94
2023/03/23 07:29:51;;;;;;;;;;;;;;;;;;4921815;29;19923;-92
2023/03/23 07:32:18;;;;;;;;;;;;;;;;;;4921163;29;19923;-90
2023/03/23 07:34:44;;;;;;;;;;;;;;;;;;4921557;29;20017;-92
2023/03/23 07:37:11;;;;;;;;;;;;;;;;;;4921018;29;20013;-92
2023/03/23 07:39:37;;;;;;;;;;;;;;;;;;4921109;29;19938;-93
2023/03/23 07:42:03;;;;;;;;;;;;;;;;;;4920694;29;19922;-91
2023/03/23 07:44:29;;;;;;;;;;;;;;;;;;4920676;29;19929;-93
2023/03/23 07:46:57;;;;;;;;;;;;;;;;;;4919932;29;20370;-92
2023/03/23 07:49:24;;;;;;;;;;;;;;;;;;4920979;29;19923;-94
2023/03/23 07:51:50;;;;;;;;;;;;;;;;;;4921018;29;20363;-94
2023/03/23 07:54:16;;;;;;;;;;;;;;;;;;4921299;29;19930;-93
2023/03/23 07:56:43;;;;;;;;;;;;;;;;;;4919036;29;20318;-91
2023/03/23 07:59:11;;;;;;;;;;;;;;;;;;4920890;29;19923;-92
2023/03/23 08:01:39;;;;;;;;;;;;;;;;;;4922327;29;20006;-91
2023/03/23 08:04:05;;;;;;;;;;;;;;;;;;4920970;29;20343;-92
2023/03/23 08:06:34;;;;;;;;;;;;;;;;;;4919721;29;19974;-94
2023/03/23 08:09:06;;;;;;;;;;;;;;;;;;4936592;29;19923;-94
2023/03/23 08:11:32;;;;;;;;;;;;;;;;;;4920901;29;20002;-92
2023/03/23 08:13:58;;;;;;;;;;;;;;;;;;4920792;29;19923;-93
2023/03/23 08:16:25;;;;;;;;;;;;;;;;;;4914266;29;20033;-93
2023/03/23 08:18:51;;;;;;;;;;;;;;;;;;4921221;29;19923;-92
2023/03/23 08:21:17;;;;;;;;;;;;;;;;;;4905329;29;20294;-92
2023/03/23 08:23:43;;;;;;;;;;;;;;;;;;4907984;29;19922;-93
2023/03/23 08:26:09;;;;;;;;;;;;;;;;;;4921190;29;19978;-94
2023/03/23 08:28:35;;;;;;;;;;;;;;;;;;4923915;29;19934;-93
2023/03/23 08:31:01;;;;;;;;;;;;;;;;;;4923924;29;19958;-93
2023/03/23 08:33:27;;;;;;;;;;;;;;;;;;4924182;29;20001;-94
2023/03/23 08:35:53;;;;;;;;;;;;;;;;;;4924119;29;20020;-94
2023/03/23 08:38:21;;;;;;;;;;;;;;;;;;4924131;29;20020;-93
2023/03/23 08:40:47;;;;;;;;;;;;;;;;;;4925436;29;20374;-94
2023/03/23 08:43:13;;;;;;;;;;;;;;;;;;4925844;29;19923;-92
2023/03/23 08:45:39;;;;;;;;;;;;;;;;;;4923553;29;19951;-92
2023/03/23 08:48:07;;;;;;;;;;;;;;;;;;4923288;29;19923;-94
2023/03/23 08:50:35;;;;;;;;;;;;;;;;;;4939424;29;19929;-91
2023/03/23 08:53:01;;;;;;;;;;;;;;;;;;4923144;29;19926;-92
2023/03/23 08:55:28;;;;;;;;;;;;;;;;;;4923255;29;19933;-94
2023/03/23 08:57:54;;;;;;;;;;;;;;;;;;4923466;29;19929;-92
2023/03/23 09:00:21;;;;;;;;;;;;;;;;;;4922042;29;20302;-92
2023/03/23 09:02:47;;;;;;;;;;;;;;;;;;4938549;29;19969;-92
2023/03/23 09:05:13;;;;;;;;;;;;;;;;;;4923268;29;19962;-91
2023/03/23 09:07:39;;;;;;;;;;;;;;;;;;4922546;29;19953;-91
2023/03/23 09:10:05;;;;;;;;;;;;;;;;;;4922545;29;19926;-91
2023/03/23 09:12:31;;;;;;;;;;;;;;;;;;4922774;29;19930;-93
2023/03/23 09:14:56;;;;;;;;;;;;;;;;;;4918620;29;19930;-92
2023/03/23 09:17:31;;;;;;;;;;;;;;;;;;4921164;29;19927;-93
2023/03/23 09:19:59;;;;;;;;;;;;;;;;;;4934573;29;19923;-93
2023/03/23 09:22:25;;;;;;;;;;;;;;;;;;4921367;29;19926;-91
2023/03/23 09:24:52;;;;;;;;;;;;;;;;;;4921881;28;20430;-93
2023/03/23 09:27:27;;;;;;;;;;;;;;;;;;4938982;29;19994;-92
2023/03/23 09:29:55;;;;;;;;;;;;;;;;;;4938116;29;20452;-92
2023/03/23 09:32:22;;;;;;;;;;;;;;;;;;4918119;29;19923;-92
2023/03/23 09:34:48;;;;;;;;;;;;;;;;;;4918088;29;19923;-91
2023/03/23 09:37:14;;;;;;;;;;;;;;;;;;4918354;29;19934;-91
2023/03/23 09:39:40;;;;;;;;;;;;;;;;;;4918312;29;19931;-91
2023/03/23 09:42:06;;;;;;;;;;;;;;;;;;4918848;29;20029;-90
2023/03/23 09:44:32;;;;;;;;;;;;;;;;;;4934610;29;20014;-92
2023/03/23 09:46:57;;;;;;;;;;;;;;;;;;4918212;29;20014;-93
2023/03/23 09:49:24;;;;;;;;;;;;;;;;;;4919016;29;19929;-91
2023/03/23 09:51:51;;;;;;;;;;;;;;;;;;4918233;29;19923;-90
2023/03/23 09:54:17;;;;;;;;;;;;;;;;;;4918196;29;20018;-90
2023/03/23 09:56:43;;;;;;;;;;;;;;;;;;4934275;29;20302;-91
2023/03/23 09:59:09;;;;;;;;;;;;;;;;;;4918102;29;20005;-91
2023/03/23 10:01:34;;;;;;;;;;;;;;;;;;4934598;29;19979;-92
2023/03/23 10:04:01;;;;;;;;;;;;;;;;;;4918050;29;19970;-93
2023/03/23 10:06:27;;;;;;;;;;;;;;;;;;4918402;29;20083;-92
2023/03/23 10:08:53;;;;;;;;;;;;;;;;;;4918310;29;19946;-92
2023/03/23 10:11:19;;;;;;;;;;;;;;;;;;4918106;29;19950;-93
2023/03/23 10:13:45;;;;;;;;;;;;;;;;;;4933865;29;19927;-92
2023/03/23 10:16:12;;;;;;;;;;;;;;;;;;4918147;29;20005;-92
2023/03/23 10:18:38;;;;;;;;;;;;;;;;;;4918492;29;19927;-91
2023/03/23 10:21:04;;;;;;;;;;;;;;;;;;4921630;29;19930;-92
2023/03/23 10:23:30;;;;;;;;;;;;;;;;;;4921624;29;19923;-92
2023/03/23 10:25:56;;;;;;;;;;;;;;;;;;4921355;29;20496;-92
2023/03/23 10:28:22;;;;;;;;;;;;;;;;;;4921438;29;19927;-94
2023/03/23 10:30:48;;;;;;;;;;;;;;;;;;4921660;29;19923;-93
2023/03/23 10:33:14;;;;;;;;;;;;;;;;;;4921787;29;20009;-91
2023/03/23 10:35:40;;;;;;;;;;;;;;;;;;4937332;29;20394;-92
2023/03/23 10:38:06;;;;;;;;;;;;;;;;;;4921392;29;19923;-94
2023/03/23 10:40:34;;;;;;;;;;;;;;;;;;4921321;29;19945;-93
2023/03/23 10:43:00;;;;;;;;;;;;;;;;;;4921644;29;19923;-93
2023/03/23 10:45:32;;;;;;;;;;;;;;;;;;4938628;28;20306;-93
2023/03/23 10:47:59;;;;;;;;;;;;;;;;;;4924204;29;19974;-94
2023/03/23 10:50:26;;;;;;;;;;;;;;;;;;4924266;29;19926;-92
2023/03/23 10:52:53;;;;;;;;;;;;;;;;;;4924228;29;19930;-92
2023/03/23 10:55:22;;;;;;;;;;;;;;;;;;4924366;29;20361;-93
2023/03/23 10:57:49;;;;;;;;;;;;;;;;;;4923994;29;19977;-92
2023/03/23 11:00:16;;;;;;;;;;;;;;;;;;4924203;29;19926;-92
2023/03/23 11:02:42;;;;;;;;;;;;;;;;;;4924282;29;19973;-91
2023/03/23 11:05:08;;;;;;;;;;;;;;;;;;4924458;28;19945;-92
2023/03/23 11:07:34;;;;;;;;;;;;;;;;;;4924167;29;19922;-91
2023/03/23 11:10:00;;;;;;;;;;;;;;;;;;4924431;29;19923;-93
2023/03/23 11:12:26;;;;;;;;;;;;;;;;;;4924027;29;19973;-93
2023/03/23 11:14:52;;;;;;;;;;;;;;;;;;4924082;28;19922;-92
2023/03/23 11:17:19;;;;;;;;;;;;;;;;;;4923958;29;19926;-94
2023/03/23 11:19:45;;;;;;;;;;;;;;;;;;4923789;29;19926;-91
2023/03/23 11:22:11;;;;;;;;;;;;;;;;;;4923421;29;20033;-91
2023/03/23 11:24:37;;;;;;;;;;;;;;;;;;4923821;29;19926;-92
2023/03/23 11:27:06;;;;;;;;;;;;;;;;;;4923650;29;20206;-93
2023/03/23 11:29:32;;;;;;;;;;;;;;;;;;4923688;28;19930;-92
2023/03/23 11:31:58;;;;;;;;;;;;;;;;;;4924538;29;19927;-90
2023/03/23 11:34:24;;;;;;;;;;;;;;;;;;4922872;29;20025;-92
2023/03/23 11:36:50;;;;;;;;;;;;;;;;;;4943818;29;19977;-93
2023/03/23 11:39:17;;;;;;;;;;;;;;;;;;4908730;29;19970;-92
2023/03/23 11:41:43;;;;;;;;;;;;;;;;;;4908847;29;19934;-91
2023/03/23 11:44:09;;;;;;;;;;;;;;;;;;4921284;29;20298;-91
2023/03/23 11:46:35;;;;;;;;;;;;;;;;;;4926430;29;19931;-91
2023/03/23 11:49:01;;;;;;;;;;;;;;;;;;4921282;29;19987;-92
2023/03/23 11:51:27;;;;;;;;;;;;;;;;;;4919675;29;20400;-92
2023/03/23 11:53:53;;;;;;;;;;;;;;;;;;4920116;29;20040;-90
2023/03/23 11:56:19;;;;;;;;;;;;;;;;;;4923032;29;19926;-91
2023/03/23 11:58:45;;;;;;;;;;;;;;;;;;4923011;29;20287;-95
2023/03/23 12:01:12;;;;;;;;;;;;;;;;;;4923828;29;19993;-94
2023/03/23 12:03:46;;;;;;;;;;;;;;;;;;4939512;29;19922;-93
2023/03/23 12:06:16;;;;;;;;;;;;;;;;;;4939424;29;19923;-93
2023/03/23 12:08:42;;;;;;;;;;;;;;;;;;4923869;29;19989;-92
2023/03/23 12:11:09;;;;;;;;;;;;;;;;;;4923563;29;19923;-92
2023/03/23 12:13:35;;;;;;;;;;;;;;;;;;4923943;29;19973;-92
2023/03/23 12:16:01;;;;;;;;;;;;;;;;;;4923681;29;19962;-92
2023/03/23 12:18:28;;;;;;;;;;;;;;;;;;4922754;29;19970;-90
2023/03/23 12:20:56;;;;;;;;;;;;;;;;;;4922611;29;19945;-95
2023/03/23 12:23:32;;;;;;;;;;;;;;;;;;4923242;29;19972;-94
2023/03/23 12:26:01;;;;;;;;;;;;;;;;;;4939447;29;20117;-93
2023/03/23 12:28:31;;;;;;;;;;;;;;;;;;4939256;29;20079;-96
2023/03/23 12:30:57;;;;;;;;;;;;;;;;;;4922502;29;19922;-90
2023/03/23 12:33:23;;;;;;;;;;;;;;;;;;4922752;29;19922;-92
2023/03/23 12:35:55;;;;;;;;;;;;;;;;;;4939260;29;19934;-91
2023/03/23 12:38:21;;;;;;;;;;;;;;;;;;4922791;29;19922;-92
2023/03/23 12:40:47;;;;;;;;;;;;;;;;;;4922474;29;20313;-90
2023/03/23 12:43:13;;;;;;;;;;;;;;;;;;4937925;29;19922;-90
2023/03/23 12:45:39;;;;;;;;;;;;;;;;;;4921940;29;19926;-91
2023/03/23 12:48:05;;;;;;;;;;;;;;;;;;4922618;29;19948;-89
2023/03/23 12:50:31;;;;;;;;;;;;;;;;;;4922431;29;20366;-90
2023/03/23 12:52:58;;;;;;;;;;;;;;;;;;4938315;29;19923;-91
2023/03/23 12:55:24;;;;;;;;;;;;;;;;;;4921975;29;20440;-90
2023/03/23 12:57:51;;;;;;;;;;;;;;;;;;4922366;29;19922;-92
2023/03/23 13:00:18;;;;;;;;;;;;;;;;;;4922207;29;19926;-91
2023/03/23 13:02:44;;;;;;;;;;;;;;;;;;4921644;29;19923;-92
2023/03/23 13:05:11;;;;;;;;;;;;;;;;;;4938055;29;19923;-93
2023/03/23 13:07:38;;;;;;;;;;;;;;;;;;4922071;29;19922;-94
2023/03/23 13:10:23;;;;;;;;;;;;;;;;;;4940974;29;19921;-91
2023/03/23 13:12:50;;;;;;;;;;;;;;;;;;4922080;29;20378;-95
2023/03/23 13:15:16;;;;;;;;;;;;;;;;;;4922465;29;19929;-94
2023/03/23 13:17:44;;;;;;;;;;;;;;;;;;4923120;29;19922;-96
2023/03/23 13:26:21;;;;;;;;;;;;;;;;;;4956133;28;19930;-93
2023/03/23 13:28:47;;;;;;;;;;;;;;;;;;4922470;29;19989;-90
2023/03/23 13:31:13;;;;;;;;;;;;;;;;;;4921600;29;20394;-91
2023/03/23 13:36:33;;;;;;;;;;;;;;;;;;4938885;29;19933;-95
2023/03/23 13:38:59;;;;;;;;;;;;;;;;;;4922945;29;19926;-93
2023/03/23 13:41:26;;;;;;;;;;;;;;;;;;4921942;29;19949;-93
2023/03/23 13:43:53;;;;;;;;;;;;;;;;;;4937742;29;19923;-93
2023/03/23 13:46:18;;;;;;;;;;;;;;;;;;4922126;29;19927;-93
2023/03/23 13:48:45;;;;;;;;;;;;;;;;;;4922089;29;20382;-91
2023/03/23 13:51:11;;;;;;;;;;;;;;;;;;4921452;29;19930;-92
2023/03/23 13:53:56;;;;;;;;;;;;;;;;;;4939685;29;19938;-93
2023/03/23 13:56:23;;;;;;;;;;;;;;;;;;4941679;29;19934;-93
2023/03/23 13:58:56;;;;;;;;;;;;;;;;;;4942399;29;20366;-92
2023/03/23 14:01:32;;;;;;;;;;;;;;;;;;4925722;29;20230;-93
2023/03/23 14:04:00;;;;;;;;;;;;;;;;;;4942427;29;19922;-93
2023/03/23 14:06:26;;;;;;;;;;;;;;;;;;4926284;29;19930;-93
2023/03/23 14:08:52;;;;;;;;;;;;;;;;;;4925627;29;19922;-93
2023/03/23 14:11:18;;;;;;;;;;;;;;;;;;4924849;29;19922;-89
2023/03/23 14:13:44;;;;;;;;;;;;;;;;;;4925399;29;20376;-90
2023/03/23 14:16:10;;;;;;;;;;;;;;;;;;4924461;29;20030;-89
2023/03/23 14:18:36;;;;;;;;;;;;;;;;;;4925079;29;20290;-91
2023/03/23 14:21:11;;;;;;;;;;;;;;;;;;4924852;29;20316;-93
2023/03/23 14:23:37;;;;;;;;;;;;;;;;;;4925824;29;19933;-93
2023/03/23 14:26:07;;;;;;;;;;;;;;;;;;4924939;29;20299;-91
2023/03/23 14:28:33;;;;;;;;;;;;;;;;;;4925294;29;20286;-92
2023/03/23 14:30:59;;;;;;;;;;;;;;;;;;4925065;29;19922;-93
2023/03/23 14:33:25;;;;;;;;;;;;;;;;;;4925608;29;19954;-92
2023/03/23 14:35:52;;;;;;;;;;;;;;;;;;4924294;29;20371;-92
2023/03/23 14:38:18;;;;;;;;;;;;;;;;;;4925147;29;20052;-92
2023/03/23 14:40:44;;;;;;;;;;;;;;;;;;4924970;29;19926;-91
2023/03/23 14:43:11;;;;;;;;;;;;;;;;;;4922637;29;19923;-94
2023/03/23 14:45:38;;;;;;;;;;;;;;;;;;4956309;28;19935;-93
2023/03/23 14:48:04;;;;;;;;;;;;;;;;;;4924502;29;19922;-91
2023/03/23 14:50:30;;;;;;;;;;;;;;;;;;4906568;29;19923;-95
2023/03/23 14:52:59;;;;;;;;;;;;;;;;;;4906433;29;19970;-91
2023/03/23 14:55:30;;;;;;;;;;;;;;;;;;4929025;29;19984;-92
2023/03/23 14:57:56;;;;;;;;;;;;;;;;;;4925166;29;19929;-91
2023/03/23 15:00:22;;;;;;;;;;;;;;;;;;4924670;29;20330;-91
2023/03/23 15:02:48;;;;;;;;;;;;;;;;;;4924593;29;20374;-92
2023/03/23 15:05:19;;;;;;;;;;;;;;;;;;4924298;29;19929;-93
2023/03/23 15:07:46;;;;;;;;;;;;;;;;;;4924940;29;19923;-93
2023/03/23 15:10:12;;;;;;;;;;;;;;;;;;4925347;29;19929;-91
2023/03/23 15:12:38;;;;;;;;;;;;;;;;;;4925432;29;19923;-92
2023/03/23 15:15:04;;;;;;;;;;;;;;;;;;4924807;28;19926;-95
2023/03/23 15:17:30;;;;;;;;;;;;;;;;;;4926010;29;19945;-93
2023/03/23 15:19:58;;;;;;;;;;;;;;;;;;4925759;29;19923;-95
2023/03/23 15:22:25;;;;;;;;;;;;;;;;;;4924842;29;19966;-93
2023/03/23 15:24:52;;;;;;;;;;;;;;;;;;4925493;28;19922;-95
2023/03/23 15:27:21;;;;;;;;;;;;;;;;;;4926056;29;19977;-96
2023/03/23 15:29:48;;;;;;;;;;;;;;;;;;4925441;29;19922;-96
2023/03/23 15:32:14;;;;;;;;;;;;;;;;;;4925085;29;19922;-94
2023/03/23 15:34:41;;;;;;;;;;;;;;;;;;4925168;29;19922;-96
2023/03/23 15:37:07;;;;;;;;;;;;;;;;;;4925143;29;20020;-94
2023/03/23 15:39:33;;;;;;;;;;;;;;;;;;4925347;29;19966;-96
2023/03/23 15:41:59;;;;;;;;;;;;;;;;;;4925671;29;20476;-94
2023/03/23 15:44:26;;;;;;;;;;;;;;;;;;4927914;29;19935;-96
2023/03/23 15:55:47;;;;;;;;;;;;;;;;;;4908732;29;19927;-95
2023/03/23 16:09:58;;;;;;;;;;;;;;;;;;4944681;29;19950;-96
2023/03/23 16:12:45;;;;;;;;;;;;;;;;;;4928754;29;19969;-96
2023/03/23 16:17:56;;;;;;;;;;;;;;;;;;5676280;23;19927;-96
2023/03/23 16:20:22;;;;;;;;;;;;;;;;;;4932688;29;19961;-91
2023/03/23 16:22:53;;;;;;;;;;;;;;;;;;4949671;29;20370;-96
2023/03/23 16:25:29;;;;;;;;;;;;;;;;;;4945129;29;19963;-95
2023/03/23 16:27:58;;;;;;;;;;;;;;;;;;4924661;29;19930;-95
2023/03/23 16:33:22;;;;;;;;;;;;;;;;;;4892184;29;19923;-96
2023/03/23 16:35:56;;;;;;;;;;;;;;;;;;4912179;29;19927;-96
2023/03/23 16:38:25;;;;;;;;;;;;;;;;;;4914458;29;19923;-95
2023/03/23 16:41:08;;;;;;;;;;;;;;;;;;4944068;29;19950;-96
2023/03/23 16:43:51;;;;;;;;;;;;;;;;;;4927000;29;19966;-96
2023/03/23 16:46:19;;;;;;;;;;;;;;;;;;4908905;29;19923;-96
2023/03/23 16:48:45;;;;;;;;;;;;;;;;;;4912333;29;19923;-96
2023/03/23 16:51:11;;;;;;;;;;;;;;;;;;4909516;29;19946;-95
2023/03/23 16:53:37;;;;;;;;;;;;;;;;;;4904708;29;20156;-91
2023/03/23 16:56:03;;;;;;;;;;;;;;;;;;4919814;29;20739;-91
2023/03/23 16:58:29;;;;;;;;;;;;;;;;;;4904417;29;19923;-93
2023/03/23 17:00:54;;;;;;;;;;;;;;;;;;4903514;29;19927;-92
2023/03/23 17:03:21;;;;;;;;;;;;;;;;;;4903982;29;19929;-91
2023/03/23 17:05:47;;;;;;;;;;;;;;;;;;4903401;29;19923;-91
2023/03/23 17:08:12;;;;;;;;;;;;;;;;;;4919088;29;19927;-92
2023/03/23 17:10:38;;;;;;;;;;;;;;;;;;4903537;29;20270;-93
2023/03/23 17:13:04;;;;;;;;;;;;;;;;;;4903512;29;20009;-92
2023/03/23 17:15:38;;;;;;;;;;;;;;;;;;4928190;29;20243;-91
2023/03/23 17:18:04;;;;;;;;;;;;;;;;;;4919467;29;19931;-92